Time;durP1;ratioP1;P1;durP2;ratioP2;P2;SDS_P1;SDS_P2;PMS_P1;PMS_P2;Temp;Humidity;BMP_temperature;BMP_pressure;BME280_temperature;BME280_humidity;BME280_pressure;Samples;Min_cycle;Max_cycle;Signal;HPM_P1;HPM_P2
2023/01/20 00:01:29;;;;;;;61.45;23.75;;;;;;;-0.95;100.00;100908.53;5045510;28;20033;-90
2023/01/20 00:03:56;;;;;;;59.43;22.20;;;;;;;-0.96;100.00;100915.69;5045461;28;20025;-90
2023/01/20 00:06:23;;;;;;;68.97;24.05;;;;;;;-0.93;100.00;100927.88;5049752;28;20195;-90
2023/01/20 00:08:52;;;;;;;67.95;23.58;;;;;;;-0.95;100.00;100911.22;5045885;28;20115;-90
2023/01/20 00:11:19;;;;;;;60.80;22.70;;;;;;;-0.98;100.00;100920.31;5045487;28;20040;-90
2023/01/20 00:13:44;;;;;;;62.22;20.02;;;;;;;-0.99;100.00;100928.44;5044892;28;20025;-90
2023/01/20 00:16:11;;;;;;;69.30;23.07;;;;;;;-0.97;100.00;100926.50;5055547;28;20075;-91
2023/01/20 00:18:38;;;;;;;64.10;22.42;;;;;;;-0.97;100.00;100930.00;5036766;28;20057;-90
2023/01/20 00:21:07;;;;;;;68.20;22.67;;;;;;;-0.92;100.00;100945.56;5035919;28;20047;-90
2023/01/20 00:23:33;;;;;;;55.03;19.27;;;;;;;-0.96;100.00;100936.16;5036887;28;20465;-90
2023/01/20 00:26:03;;;;;;;61.60;21.08;;;;;;;-1.00;100.00;100930.28;5053563;28;20040;-90
2023/01/20 00:28:28;;;;;;;67.18;21.27;;;;;;;-1.03;100.00;100932.34;5054103;28;20029;-90
2023/01/20 00:30:54;;;;;;;49.07;16.77;;;;;;;-1.06;100.00;100929.00;5020722;28;20051;-90
2023/01/20 00:33:19;;;;;;;62.30;20.43;;;;;;;-1.01;100.00;100943.72;5037052;28;20032;-90
2023/01/20 00:35:47;;;;;;;72.83;21.70;;;;;;;-1.06;100.00;100931.66;5055183;28;20115;-91
2023/01/20 00:38:14;;;;;;;71.13;22.38;;;;;;;-0.97;100.00;100951.31;5036816;28;20116;-91
2023/01/20 00:40:51;;;;;;;59.42;21.13;;;;;;;-0.99;100.00;100947.09;5036244;28;20037;-90
2023/01/20 00:43:17;;;;;;;69.78;21.83;;;;;;;-0.99;100.00;100955.06;5036674;28;20040;-90
2023/01/20 00:45:42;;;;;;;72.47;20.90;;;;;;;-1.02;100.00;100948.19;5036491;28;20032;-90
2023/01/20 00:48:08;;;;;;;61.00;20.97;;;;;;;-1.00;100.00;100950.75;5036473;28;20120;-90
2023/01/20 00:50:33;;;;;;;69.93;23.00;;;;;;;-1.02;100.00;100948.19;5036479;28;20487;-89
2023/01/20 00:52:59;;;;;;;72.15;22.02;;;;;;;-0.99;100.00;100963.94;5036813;28;20057;-90
2023/01/20 00:55:24;;;;;;;57.22;20.50;;;;;;;-0.98;100.00;100959.44;5054381;28;20037;-90
2023/01/20 00:57:49;;;;;;;66.47;22.70;;;;;;;-0.99;100.00;100961.25;5035980;28;20029;-90
2023/01/20 01:00:17;;;;;;;65.00;22.03;;;;;;;-1.08;100.00;100952.28;5036706;28;20025;-91
2023/01/20 01:02:43;;;;;;;66.18;21.98;;;;;;;-0.99;100.00;100960.41;5054610;28;20037;-90
2023/01/20 01:05:08;;;;;;;68.47;22.47;;;;;;;-1.05;100.00;100959.13;5020289;28;20040;-90
2023/01/20 01:07:37;;;;;;;64.05;20.92;;;;;;;-1.06;100.00;100957.47;5054471;28;20032;-90
2023/01/20 01:10:03;;;;;;;65.60;21.13;;;;;;;-1.01;100.00;100960.53;5037801;28;20055;-90
2023/01/20 01:12:31;;;;;;;55.70;18.92;;;;;;;-1.00;100.00;100967.56;5038632;28;20029;-90
2023/01/20 01:15:00;;;;;;;71.15;20.45;;;;;;;-0.99;100.00;100969.25;5059286;28;20041;-91
2023/01/20 01:17:25;;;;;;;60.63;18.88;;;;;;;-0.98;100.00;100978.91;5059540;28;20020;-90
2023/01/20 01:19:52;;;;;;;65.60;20.60;;;;;;;-1.05;100.00;100972.44;5035134;28;20136;-91
2023/01/20 01:22:20;;;;;;;62.22;18.65;;;;;;;-0.99;100.00;100982.56;5054525;28;20465;-90
2023/01/20 01:24:46;;;;;;;72.88;21.20;;;;;;;-0.95;100.00;101002.59;5036631;28;20457;-90
2023/01/20 01:27:11;;;;;;;57.20;18.33;;;;;;;-1.00;100.00;100982.72;5035960;28;20044;-90
2023/01/20 01:29:37;;;;;;;59.28;19.00;;;;;;;-0.95;100.00;100993.78;5036004;28;20091;-91
2023/01/20 01:32:03;;;;;;;63.45;19.42;;;;;;;-0.94;100.00;100992.81;5035974;28;20031;-90
2023/01/20 01:34:29;;;;;;;63.60;18.80;;;;;;;-0.96;100.00;100992.94;5053591;28;20036;-91
2023/01/20 01:36:55;;;;;;;65.57;19.37;;;;;;;-0.96;100.00;100992.09;5054404;28;20028;-90
2023/01/20 01:39:21;;;;;;;62.13;18.15;;;;;;;-0.93;100.00;100990.00;5039523;28;20063;-91
2023/01/20 01:41:47;;;;;;;62.97;17.25;;;;;;;-0.90;100.00;100996.88;5036213;28;20074;-91
2023/01/20 01:44:15;;;;;;;65.93;19.30;;;;;;;-0.94;100.00;100990.16;5003254;28;20479;-91
2023/01/20 01:46:44;;;;;;;65.40;17.65;;;;;;;-0.86;100.00;101002.78;5036061;28;20120;-91
2023/01/20 01:49:23;;;;;;;69.20;20.93;;;;;;;-0.90;100.00;100992.41;5019608;28;20512;-90
2023/01/20 01:52:03;;;;;;;50.80;15.23;;;;;;;-0.83;100.00;101006.00;5035919;28;20283;-90
2023/01/20 01:54:35;;;;;;;62.25;17.95;;;;;;;-0.85;100.00;101001.81;5035880;28;20076;-91
2023/01/20 01:57:00;;;;;;;63.15;18.45;;;;;;;-0.83;100.00;101008.66;5035815;28;20523;-90
2023/01/20 01:59:26;;;;;;;73.03;18.93;;;;;;;-0.85;100.00;100994.66;5036153;28;20037;-90
2023/01/20 02:01:53;;;;;;;73.03;20.23;;;;;;;-0.84;100.00;100999.00;5035940;28;20466;-91
2023/01/20 02:04:24;;;;;;;77.53;20.42;;;;;;;-0.84;100.00;100999.00;5053411;28;20043;-90
2023/01/20 02:06:55;;;;;;;67.30;19.20;;;;;;;-0.80;100.00;100988.91;5038852;28;20032;-90
2023/01/20 02:09:21;;;;;;;68.65;18.85;;;;;;;-0.84;100.00;100984.81;5036141;28;20271;-90
2023/01/20 02:11:58;;;;;;;64.50;17.38;;;;;;;-0.79;100.00;100995.91;5019387;28;20140;-90
2023/01/20 02:14:46;;;;;;;67.22;18.60;;;;;;;-0.79;100.00;101004.75;5035371;28;20124;-91
2023/01/20 02:17:32;;;;;;;65.05;17.30;;;;;;;-0.73;100.00;101012.19;5034485;28;20045;-91
2023/01/20 02:20:07;;;;;;;67.00;18.83;;;;;;;-0.75;100.00;101013.31;5034921;28;20052;-90
2023/01/20 02:23:11;;;;;;;46.38;15.07;;;;;;;-0.74;100.00;101018.50;5035354;28;20043;-91
2023/01/20 02:25:42;;;;;;;65.82;18.52;;;;;;;-0.76;100.00;101011.63;5035437;28;20084;-91
2023/01/20 02:28:20;;;;;;;59.60;16.80;;;;;;;-0.77;100.00;101017.94;5035038;28;20071;-91
2023/01/20 02:31:21;;;;;;;58.22;16.40;;;;;;;-0.88;100.00;101006.41;5035865;28;20043;-90
2023/01/20 02:34:02;;;;;;;72.23;18.57;;;;;;;-0.79;100.00;101019.91;5035406;28;20033;-91
2023/01/20 02:36:49;;;;;;;61.63;17.48;;;;;;;-0.82;100.00;101013.00;5053164;28;20024;-91
2023/01/20 02:39:27;;;;;;;61.13;18.35;;;;;;;-0.79;100.00;101027.91;5034548;28;20033;-91
2023/01/20 02:42:10;;;;;;;64.28;18.00;;;;;;;-0.80;100.00;101019.03;5034941;28;20037;-91
2023/01/20 02:44:39;;;;;;;52.03;15.65;;;;;;;-0.85;100.00;101010.63;5037984;28;20572;-91
2023/01/20 02:47:11;;;;;;;57.73;18.17;;;;;;;-0.88;100.00;101017.06;5038720;28;20076;-91
2023/01/20 02:50:03;;;;;;;58.60;16.65;;;;;;;-0.88;100.00;101014.41;5056275;28;20536;-91
2023/01/20 02:52:34;;;;;;;68.63;18.02;;;;;;;-0.83;100.00;101026.47;5038742;28;20033;-91
2023/01/20 02:55:05;;;;;;;61.95;17.83;;;;;;;-0.86;100.00;101024.09;5056468;28;20040;-90
2023/01/20 02:57:39;;;;;;;66.60;17.25;;;;;;;-0.86;100.00;101029.41;5038260;28;20053;-91
2023/01/20 03:00:12;;;;;;;59.80;18.57;;;;;;;-0.81;100.00;101024.50;5038728;28;20461;-91
2023/01/20 03:02:40;;;;;;;63.00;17.52;;;;;;;-0.93;100.00;101008.66;5022864;28;20029;-91
2023/01/20 03:05:22;;;;;;;58.53;16.85;;;;;;;-0.90;100.00;101011.03;5039251;28;20432;-91
2023/01/20 03:07:50;;;;;;;63.78;18.00;;;;;;;-0.90;100.00;101028.81;5056920;28;20044;-91
2023/01/20 03:10:20;;;;;;;62.22;18.23;;;;;;;-0.91;100.00;101020.00;5022220;28;20029;-91
2023/01/20 03:12:54;;;;;;;45.73;14.30;;;;;;;-0.83;100.00;101023.81;5038431;28;20032;-91
2023/01/20 03:15:24;;;;;;;48.38;14.18;;;;;;;-0.82;100.00;101031.66;5038362;28;20431;-91
2023/01/20 03:17:51;;;;;;;65.65;19.25;;;;;;;-0.95;100.00;101015.91;5038085;28;20033;-90
2023/01/20 03:20:17;;;;;;;59.75;16.98;;;;;;;-0.90;100.00;101026.16;5037550;28;20049;-91
2023/01/20 03:22:42;;;;;;;50.87;16.23;;;;;;;-0.86;100.00;101026.75;5038145;28;20044;-90
2023/01/20 03:25:12;;;;;;;55.10;15.50;;;;;;;-0.88;100.00;101029.56;5038403;28;20487;-91
2023/01/20 03:27:37;;;;;;;60.67;16.83;;;;;;;-0.96;100.00;101013.41;5037603;28;20033;-91
2023/01/20 03:30:11;;;;;;;68.05;17.55;;;;;;;-0.96;100.00;101016.91;5037902;28;20124;-91
2023/01/20 03:32:41;;;;;;;56.97;16.77;;;;;;;-0.89;100.00;101038.50;5038924;28;20025;-91
2023/01/20 03:35:14;;;;;;;59.70;16.45;;;;;;;-0.93;100.00;101040.63;5037886;28;20366;-91
2023/01/20 03:37:43;;;;;;;54.30;16.02;;;;;;;-0.95;100.00;101039.06;5022389;28;20047;-91
2023/01/20 03:40:13;;;;;;;60.05;18.23;;;;;;;-0.91;100.00;101045.81;5037746;28;20033;-91
2023/01/20 03:42:57;;;;;;;67.43;17.90;;;;;;;-0.89;100.00;101049.16;5021619;28;20025;-91
2023/01/20 03:45:26;;;;;;;62.17;17.10;;;;;;;-0.85;100.00;101053.25;5055607;28;20095;-91
2023/01/20 03:47:54;;;;;;;67.68;19.08;;;;;;;-0.84;100.00;101048.75;5037919;28;20459;-90
2023/01/20 03:50:42;;;;;;;68.25;17.30;;;;;;;-0.84;100.00;101057.63;5037561;28;20025;-91
2023/01/20 03:53:25;;;;;;;56.35;16.38;;;;;;;-0.94;100.00;101036.25;5037727;28;20044;-91
2023/01/20 03:56:03;;;;;;;70.90;18.80;;;;;;;-0.93;100.00;101040.63;5055264;28;20039;-91
2023/01/20 03:58:35;;;;;;;63.93;19.27;;;;;;;-0.93;100.00;101040.63;5037382;28;20043;-91
2023/01/20 04:01:06;;;;;;;55.17;16.98;;;;;;;-0.91;100.00;101046.66;5037227;28;20274;-92
2023/01/20 04:03:38;;;;;;;68.00;19.25;;;;;;;-0.90;100.00;101050.13;5038332;28;20535;-90
2023/01/20 04:06:10;;;;;;;72.43;20.80;;;;;;;-0.93;100.00;101047.75;5039339;28;20040;-90
2023/01/20 04:08:44;;;;;;;72.60;21.58;;;;;;;-0.95;100.00;101053.22;5040180;28;20037;-90
2023/01/20 04:11:12;;;;;;;70.17;20.70;;;;;;;-0.90;100.00;101052.81;5039959;28;20032;-90
2023/01/20 04:13:38;;;;;;;68.72;19.10;;;;;;;-0.86;100.00;101056.06;5038090;28;20275;-90
2023/01/20 04:16:10;;;;;;;72.00;22.80;;;;;;;-0.91;100.00;101045.81;5037768;28;20033;-90
2023/01/20 04:18:40;;;;;;;56.67;19.40;;;;;;;-0.73;100.00;101056.66;5056072;28;20057;-90
2023/01/20 04:21:14;;;;;;;57.30;18.13;;;;;;;-0.91;100.00;101051.13;5039677;28;20282;-90
2023/01/20 04:23:54;;;;;;;64.25;19.25;;;;;;;-0.98;100.00;101044.66;5039333;28;20023;-91
2023/01/20 04:26:20;;;;;;;65.03;18.95;;;;;;;-0.97;100.00;101049.84;5044240;28;20025;-89
2023/01/20 04:28:45;;;;;;;58.90;17.87;;;;;;;-1.02;100.00;101044.06;5060595;28;20021;-90
2023/01/20 04:31:11;;;;;;;58.20;17.90;;;;;;;-0.96;100.00;101054.22;5044513;28;20085;-90
2023/01/20 04:33:40;;;;;;;52.17;17.58;;;;;;;-1.03;100.00;101049.53;5076021;28;20029;-91
2023/01/20 04:36:08;;;;;;;63.33;19.17;;;;;;;-0.99;100.00;101054.50;5041076;28;20433;-90
2023/01/20 04:38:33;;;;;;;63.15;20.33;;;;;;;-0.98;100.00;101056.16;5025061;28;20033;-90
2023/01/20 04:41:01;;;;;;;61.30;19.47;;;;;;;-1.01;100.00;101051.09;5040712;28;20439;-90
2023/01/20 04:43:27;;;;;;;62.45;18.13;;;;;;;-0.96;100.00;101058.69;5036993;28;20017;-90
2023/01/20 04:45:52;;;;;;;65.63;20.33;;;;;;;-1.06;100.00;101043.50;5037627;28;20080;-91
2023/01/20 04:48:18;;;;;;;58.50;17.50;;;;;;;-0.99;100.00;101058.94;5053241;28;20449;-90
2023/01/20 04:50:43;;;;;;;61.20;19.05;;;;;;;-1.07;100.00;101051.63;5054476;28;20037;-90
2023/01/20 04:53:18;;;;;;;64.70;19.33;;;;;;;-1.07;100.00;101063.13;5036318;28;20112;-90
2023/01/20 04:55:43;;;;;;;62.70;19.10;;;;;;;-1.01;100.00;101066.25;5037459;28;20039;-90
2023/01/20 04:58:09;;;;;;;70.50;20.73;;;;;;;-1.01;100.00;101068.91;5036882;28;20447;-91
2023/01/20 05:00:35;;;;;;;61.17;16.92;;;;;;;-1.02;100.00;101060.06;5037302;28;20068;-90
2023/01/20 05:03:07;;;;;;;56.27;17.83;;;;;;;-0.96;100.00;101072.84;5036651;28;20029;-90
2023/01/20 05:05:33;;;;;;;61.10;18.02;;;;;;;-1.01;100.00;101059.09;5054516;28;20112;-90
2023/01/20 05:07:58;;;;;;;65.27;19.97;;;;;;;-0.92;100.00;101068.09;5036769;28;20509;-91
2023/01/20 05:10:24;;;;;;;58.35;18.42;;;;;;;-1.00;100.00;101062.63;5055952;28;20029;-91
2023/01/20 05:12:54;;;;;;;62.30;19.00;;;;;;;-0.96;100.00;101072.84;5039717;28;20477;-91
2023/01/20 05:15:20;;;;;;;58.30;17.65;;;;;;;-0.94;100.00;101078.88;5037338;28;20028;-90
2023/01/20 05:17:45;;;;;;;65.50;18.90;;;;;;;-0.94;100.00;101073.56;5039321;28;20078;-91
2023/01/20 05:20:11;;;;;;;69.80;19.20;;;;;;;-1.03;100.00;101058.38;5051383;28;20041;-90
2023/01/20 05:22:36;;;;;;;68.57;19.52;;;;;;;-1.06;100.00;101061.31;5052531;28;20087;-91
2023/01/20 05:25:02;;;;;;;69.13;18.97;;;;;;;-1.02;100.00;101076.03;5049780;28;20021;-91
2023/01/20 05:27:28;;;;;;;64.00;19.33;;;;;;;-1.01;100.00;101076.91;5052259;28;20021;-90
2023/01/20 05:29:53;;;;;;;56.75;16.45;;;;;;;-0.93;100.00;101093.03;5049231;28;20025;-90
2023/01/20 05:32:19;;;;;;;66.03;19.43;;;;;;;-1.01;100.00;101084.88;5037550;28;20064;-90
2023/01/20 05:34:44;;;;;;;65.17;18.93;;;;;;;-0.99;100.00;101082.91;5036301;28;20029;-91
2023/01/20 05:37:12;;;;;;;54.07;15.60;;;;;;;-0.97;100.00;101075.66;5036967;28;20032;-91
2023/01/20 05:39:37;;;;;;;65.38;17.85;;;;;;;-0.94;100.00;101078.06;5054651;28;20033;-90
2023/01/20 05:42:03;;;;;;;66.50;17.75;;;;;;;-0.97;100.00;101075.66;5054054;28;20036;-90
2023/01/20 05:44:28;;;;;;;68.80;18.38;;;;;;;-0.95;100.00;101090.50;5053562;28;20025;-90
2023/01/20 05:46:54;;;;;;;59.43;16.90;;;;;;;-0.97;100.00;101065.84;5035607;28;20115;-91
2023/01/20 05:49:21;;;;;;;52.92;17.02;;;;;;;-1.02;100.00;101060.06;5053517;28;20033;-91
2023/01/20 05:51:47;;;;;;;65.07;16.83;;;;;;;-0.97;100.00;101081.00;5053571;28;20477;-91
2023/01/20 05:54:12;;;;;;;61.58;17.67;;;;;;;-1.01;100.00;101084.88;5035531;28;20036;-91
2023/01/20 05:56:41;;;;;;;55.88;17.45;;;;;;;-0.96;100.00;101090.66;5018970;28;20457;-91
2023/01/20 05:59:07;;;;;;;57.03;16.60;;;;;;;-0.91;100.00;101104.41;5019790;28;20043;-90
2023/01/20 06:01:32;;;;;;;55.83;17.57;;;;;;;-0.97;100.00;101084.47;5035694;28;20116;-90
2023/01/20 06:03:58;;;;;;;57.93;16.83;;;;;;;-0.90;100.00;101088.31;5035213;28;20056;-90
2023/01/20 06:06:29;;;;;;;54.67;15.88;;;;;;;-0.93;100.00;101091.22;5035860;28;20060;-91
2023/01/20 06:08:55;;;;;;;66.57;16.47;;;;;;;-0.91;100.00;101093.75;5053499;28;20027;-90
2023/01/20 06:11:20;;;;;;;56.88;16.00;;;;;;;-0.92;100.00;101100.06;5036862;28;20029;-90
2023/01/20 06:13:47;;;;;;;51.40;16.27;;;;;;;-0.89;100.00;101099.78;5037389;28;20040;-91
2023/01/20 06:16:13;;;;;;;44.92;14.10;;;;;;;-0.88;100.00;101110.31;5036523;28;20029;-91
2023/01/20 06:18:39;;;;;;;59.63;17.70;;;;;;;-0.89;100.00;101107.78;5037086;28;20401;-90
2023/01/20 06:21:06;;;;;;;45.67;14.40;;;;;;;-0.86;100.00;101109.34;5011305;28;20034;-89
2023/01/20 06:23:32;;;;;;;57.13;16.33;;;;;;;-0.83;100.00;101111.72;4999485;28;20048;-89
2023/01/20 06:26:01;;;;;;;40.17;12.87;;;;;;;-0.82;100.00;101108.94;5015584;28;20418;-91
2023/01/20 06:28:27;;;;;;;44.38;14.00;;;;;;;-0.82;100.00;101105.44;5016001;28;20125;-92
2023/01/20 06:31:01;;;;;;;40.47;13.35;;;;;;;-0.77;100.00;101116.50;5016365;28;20064;-91
2023/01/20 06:33:28;;;;;;;54.40;16.83;;;;;;;-0.81;100.00;101118.63;5017670;28;20352;-90
2023/01/20 06:35:54;;;;;;;51.40;16.45;;;;;;;-0.82;100.00;101116.09;5027211;28;20076;-90
2023/01/20 06:38:21;;;;;;;57.33;17.55;;;;;;;-0.83;100.00;101111.72;5026787;28;20120;-90
2023/01/20 06:40:47;;;;;;;52.08;15.63;;;;;;;-0.76;100.00;101128.88;5027787;28;20045;-90
2023/01/20 06:43:16;;;;;;;45.67;14.50;;;;;;;-0.74;100.00;101121.56;5028734;28;20033;-90
2023/01/20 06:45:43;;;;;;;62.10;16.83;;;;;;;-0.85;100.00;101114.53;5007382;28;20034;-91
2023/01/20 06:48:13;;;;;;;55.13;16.40;;;;;;;-0.89;100.00;101108.66;5005757;28;20133;-93
2023/01/20 06:50:41;;;;;;;54.57;16.17;;;;;;;-0.93;100.00;101103.69;4999768;28;20033;-91
2023/01/20 06:53:11;;;;;;;39.78;12.07;;;;;;;-0.85;100.00;101108.38;5016021;28;20036;-92
2023/01/20 06:55:40;;;;;;;55.70;16.00;;;;;;;-0.93;100.00;101104.56;4999863;28;20089;-90
2023/01/20 06:58:05;;;;;;;55.33;17.73;;;;;;;-0.94;100.00;101104.69;5024707;28;20088;-91
2023/01/20 07:00:31;;;;;;;46.47;13.87;;;;;;;-1.00;100.00;101106.06;5040124;28;20144;-93
2023/01/20 07:02:56;;;;;;;59.77;16.50;;;;;;;-1.07;100.00;101096.91;5022882;28;20423;-93
2023/01/20 07:05:29;;;;;;;52.05;16.73;;;;;;;-1.06;100.00;101112.75;5039386;28;20029;-93
2023/01/20 07:07:59;;;;;;;48.92;14.60;;;;;;;-1.09;100.00;101104.22;5042891;28;20037;-94
2023/01/20 07:10:35;;;;;;;59.60;17.50;;;;;;;-1.09;100.00;101098.88;5023622;28;20037;-96
2023/01/20 07:13:05;;;;;;;50.22;13.60;;;;;;;-1.13;100.00;101103.63;5058984;28;20033;-96
2023/01/20 07:15:33;;;;;;;59.78;16.02;;;;;;;-1.14;100.00;101098.41;5025856;28;20029;-96
2023/01/20 07:18:06;;;;;;;45.80;14.38;;;;;;;-1.08;100.00;101108.53;5043948;28;20025;-96
2023/01/20 07:20:32;;;;;;;47.65;15.85;;;;;;;-1.10;100.00;101098.00;5024737;28;20524;-96
2023/01/20 07:23:04;;;;;;;40.27;13.77;;;;;;;-1.13;100.00;101106.28;5047250;28;20028;-96
2023/01/20 07:25:32;;;;;;;54.78;15.75;;;;;;;-1.14;100.00;101107.25;5052888;28;20025;-96
2023/01/20 07:28:04;;;;;;;53.80;14.43;;;;;;;-1.12;100.00;101105.31;5060584;28;20033;-96
2023/01/20 07:30:35;;;;;;;38.83;14.67;;;;;;;-1.09;100.00;101120.19;5031547;28;20059;-96
2023/01/20 07:33:01;;;;;;;48.15;14.48;;;;;;;-1.07;100.00;101111.06;5041044;28;20256;-96
2023/01/20 07:35:31;;;;;;;55.38;16.80;;;;;;;-1.09;100.00;101123.69;5039939;28;20033;-96
2023/01/20 07:38:06;;;;;;;39.90;13.47;;;;;;;-1.00;100.00;101138.03;5023779;28;20033;-95
2023/01/20 07:40:43;;;;;;;44.95;14.57;;;;;;;-1.11;100.00;101122.97;5026282;28;20519;-96
2023/01/20 07:43:11;;;;;;;46.28;14.43;;;;;;;-1.09;100.00;101134.34;5043073;28;20037;-95
2023/01/20 07:45:49;;;;;;;;;;;;;;;;;;;;;
2023/01/20 07:48:17;;;;;;;54.40;16.65;;;;;;;-1.06;100.00;101139.38;5131468;22;20148;-90
2023/01/20 07:51:00;;;;;;;55.90;15.30;;;;;;;-1.14;100.00;101135.69;5017785;28;20049;-92
2023/01/20 07:53:57;;;;;;;41.70;13.13;;;;;;;-1.12;100.00;101145.25;5004286;28;20045;-92
2023/01/20 07:56:27;;;;;;;56.47;15.68;;;;;;;-1.15;100.00;101150.84;5031179;28;20041;-91
2023/01/20 07:59:15;;;;;;;;;;;;;;;;;;;;;
2023/01/20 08:01:48;;;;;;;41.25;12.75;;;;;;;-1.01;100.00;101162.97;5021021;28;20030;-91
2023/01/20 08:04:52;;;;;;;55.40;15.50;;;;;;;-1.06;100.00;101159.88;5017885;28;20410;-91
2023/01/20 08:07:32;;;;;;;;;;;;;;;;;;;;;
2023/01/20 08:10:15;;;;;;;53.25;14.88;;;;;;;-1.15;100.00;101156.16;5019125;28;20037;-92
2023/01/20 08:12:54;;;;;;;;;;;;;;;;;;;;;
2023/01/20 08:15:29;;;;;;;44.13;12.85;;;;;;;-1.09;100.00;101168.13;5035232;28;20039;-91
2023/01/20 08:18:08;;;;;;;59.07;16.37;;;;;;;-1.15;100.00;101156.16;5001860;28;20095;-91
2023/01/20 08:20:44;;;;;;;;;;;;;;;;;;;;;
2023/01/20 08:23:19;;;;;;;;;;;;;;;;;;;;;
2023/01/20 08:25:58;;;;;;;;;;;;;;;;;;;;;
2023/01/20 08:28:27;;;;;;;59.88;15.88;;;;;;;-1.10;100.00;101166.44;5034336;28;20385;-90
2023/01/20 08:31:03;;;;;;;59.03;16.23;;;;;;;-1.04;100.00;101160.56;5033710;28;20045;-90
2023/01/20 08:33:48;;;;;;;57.38;15.95;;;;;;;-1.04;100.00;101168.56;5017789;28;20116;-91
2023/01/20 08:36:28;;;;;;;53.10;16.50;;;;;;;-1.05;100.00;101169.53;5002510;28;20033;-90
2023/01/20 08:39:14;;;;;;;;;;;;;;;;;;;;;
2023/01/20 08:41:45;;;;;;;58.42;15.32;;;;;;;-1.05;100.00;101164.19;5035493;28;20044;-90
2023/01/20 08:44:17;;;;;;;45.27;14.33;;;;;;;-1.01;100.00;101170.13;5009002;28;20076;-90
2023/01/20 08:46:51;;;;;;;48.78;14.02;;;;;;;-1.03;100.00;101164.94;5017208;28;20531;-90
2023/01/20 08:49:20;;;;;;;45.53;14.35;;;;;;;-0.97;100.00;101176.88;5016270;28;20057;-90
2023/01/20 08:52:02;;;;;;;41.85;13.85;;;;;;;-1.03;100.00;101161.41;5016891;28;20025;-90
2023/01/20 08:54:33;;;;;;;48.00;15.38;;;;;;;-0.98;100.00;101186.66;5017050;28;20034;-90
2023/01/20 08:57:09;;;;;;;49.43;14.30;;;;;;;-1.06;100.00;101181.19;5000460;28;20029;-91
2023/01/20 08:59:49;;;;;;;;;;;;;;;;;;;;;
2023/01/20 09:02:28;;;;;;;;;;;;;;;;;;;;;
2023/01/20 09:05:14;;;;;;;48.10;14.68;;;;;;;-1.06;100.00;101183.84;5034107;28;20032;-91
2023/01/20 09:07:47;;;;;;;46.47;15.18;;;;;;;-1.10;100.00;101182.41;5016115;28;20033;-91
2023/01/20 09:10:12;;;;;;;50.23;15.57;;;;;;;-1.01;100.00;101186.94;5001407;28;20079;-91
2023/01/20 09:12:48;;;;;;;47.38;14.38;;;;;;;-1.02;100.00;101189.72;5015950;28;20029;-90
2023/01/20 09:15:16;;;;;;;49.47;14.38;;;;;;;-1.07;100.00;101184.81;5001390;28;20025;-90
2023/01/20 09:17:51;;;;;;;47.57;14.93;;;;;;;-1.00;100.00;101198.44;5015924;28;20469;-90
2023/01/20 09:20:29;;;;;;;47.97;13.40;;;;;;;-1.04;100.00;101183.72;5015517;28;20116;-90
2023/01/20 09:23:04;;;;;;;49.08;14.82;;;;;;;-1.00;100.00;101185.13;5016369;28;20037;-91
2023/01/20 09:25:39;;;;;;;48.92;14.73;;;;;;;-0.96;100.00;101189.19;5015870;28;20120;-90
2023/01/20 09:28:07;;;;;;;54.38;14.98;;;;;;;-0.99;100.00;101177.00;5016094;28;20037;-90
2023/01/20 09:30:45;;;;;;;45.93;15.27;;;;;;;-0.94;100.00;101188.09;5032740;28;20033;-90
2023/01/20 09:33:21;;;;;;;49.38;14.18;;;;;;;-0.99;100.00;101184.13;5000802;28;20061;-90
2023/01/20 09:36:04;;;;;;;47.60;15.20;;;;;;;-0.93;100.00;101195.13;5015654;28;20038;-90
2023/01/20 09:44:34;;;;;;;48.63;14.23;;;;;;;-0.90;100.00;101216.16;5042339;28;20044;-92
2023/01/20 09:47:25;;;;;;;39.85;12.88;;;;;;;-0.90;100.00;101218.84;5029226;28;20029;-95
2023/01/20 09:53:33;;;;;;;;;;;;;;;;;;;;;
2023/01/20 09:56:07;;;;;;;46.28;13.25;;;;;;;-1.06;100.00;101210.47;5035266;28;20044;-93
2023/01/20 09:58:50;;;;;;;44.70;12.50;;;;;;;-0.98;100.00;101215.97;5004839;28;20116;-94
2023/01/20 10:01:32;;;;;;;39.55;12.23;;;;;;;-1.04;100.00;101205.84;5019964;28;20030;-94
2023/01/20 10:04:47;;;;;;;41.28;11.05;;;;;;;-1.00;100.00;101209.09;5019655;28;20033;-94
2023/01/20 10:07:48;;;;;;;;;;;;;;;;;;;;;
2023/01/20 10:10:36;;;;;;;34.67;11.75;;;;;;;-1.04;100.00;101186.38;5041118;28;20100;-93
2023/01/20 10:13:31;;;;;;;32.87;11.47;;;;;;;-1.05;100.00;101182.84;5018862;28;20052;-95
2023/01/20 10:16:36;;;;;;;32.25;10.48;;;;;;;-0.97;100.00;101203.50;5018883;28;20096;-95
2023/01/20 10:19:41;;;;;;;38.47;9.88;;;;;;;-0.95;100.00;101202.38;5016658;28;20029;-94
2023/01/20 10:26:03;;;;;;;32.40;9.73;;;;;;;-0.95;100.00;101197.06;5030016;28;20580;-94
2023/01/20 10:29:04;;;;;;;33.83;9.73;;;;;;;-0.97;100.00;101188.38;5019016;28;20385;-95
2023/01/20 10:31:48;;;;;;;27.80;9.60;;;;;;;-0.92;100.00;101194.13;5019907;28;20129;-95
2023/01/20 10:34:37;;;;;;;24.98;9.18;;;;;;;-0.89;100.00;101190.38;5019713;28;20045;-96
2023/01/20 10:37:45;;;;;;;;;;;;;;;;;;;;;
2023/01/20 10:43:50;;;;;;;;;;;;;;;;;;;;;
2023/01/20 10:46:40;;;;;;;25.80;8.88;;;;;;;-0.70;100.00;101200.28;5036939;28;20021;-96
2023/01/20 10:49:28;;;;;;;;;;;;;;;;;;;;;
2023/01/20 10:52:35;;;;;;;;;;;;;;;;;;;;;
2023/01/20 10:55:33;;;;;;;26.77;8.73;;;;;;;-0.66;100.00;101190.22;5032508;28;20408;-93
2023/01/20 10:58:13;;;;;;;25.17;8.90;;;;;;;-0.65;100.00;101198.06;5017905;28;20044;-93
2023/01/20 11:00:46;;;;;;;25.73;8.75;;;;;;;-0.73;100.00;101182.72;5042895;28;20084;-92
2023/01/20 11:03:22;;;;;;;30.52;9.48;;;;;;;-0.56;100.00;101199.06;5035860;28;20116;-91
2023/01/20 11:05:54;;;;;;;34.00;10.32;;;;;;;-0.62;100.00;101184.47;5037704;28;20029;-90
2023/01/20 11:08:26;;;;;;;26.27;9.20;;;;;;;-0.60;100.00;101176.34;5013289;28;20030;-92
2023/01/20 11:11:04;;;;;;;25.07;9.50;;;;;;;-0.56;100.00;101185.72;5013652;28;20083;-90
2023/01/20 11:13:32;;;;;;;35.33;10.45;;;;;;;-0.55;100.00;101188.28;5017324;28;20029;-89
2023/01/20 11:16:02;;;;;;;24.75;9.60;;;;;;;-0.47;100.00;101195.63;5017104;28;20091;-89
2023/01/20 11:18:33;;;;;;;29.45;9.63;;;;;;;-0.46;100.00;101196.44;5017145;28;20026;-88
2023/01/20 11:21:03;;;;;;;24.35;9.52;;;;;;;-0.44;100.00;101203.34;5017326;28;20076;-89
2023/01/20 11:23:40;;;;;;;25.53;9.43;;;;;;;-0.44;100.00;101202.50;5017120;28;20059;-90
2023/01/20 11:26:23;;;;;;;25.02;9.15;;;;;;;-0.52;100.00;101199.66;5016978;28;20030;-89
2023/01/20 11:28:50;;;;;;;19.15;8.40;;;;;;;-0.54;100.00;101197.13;5013182;28;20026;-89
2023/01/20 11:31:16;;;;;;;26.83;9.75;;;;;;;-0.50;100.00;101193.22;5016757;28;20128;-89
2023/01/20 11:34:00;;;;;;;23.90;10.10;;;;;;;-0.46;100.00;101199.13;5016263;28;20544;-89
2023/01/20 11:36:28;;;;;;;25.58;10.10;;;;;;;-0.39;100.00;101201.09;5031702;28;20306;-89
2023/01/20 11:38:55;;;;;;;24.48;10.20;;;;;;;-0.38;100.00;101199.28;5017406;28;20033;-89
2023/01/20 11:41:24;;;;;;;25.55;9.75;;;;;;;-0.29;100.00;101209.13;5016962;28;20397;-89
2023/01/20 11:43:54;;;;;;;21.73;9.32;;;;;;;-0.25;100.00;101207.91;5016335;28;20474;-90
2023/01/20 11:46:34;;;;;;;22.97;9.70;;;;;;;-0.31;100.00;101203.13;5016737;28;20030;-90
2023/01/20 11:49:15;;;;;;;22.35;9.65;;;;;;;-0.27;100.00;101201.84;5034141;28;20280;-90
2023/01/20 11:51:56;;;;;;;26.27;10.30;;;;;;;-0.19;100.00;101201.19;5034708;28;20041;-90
2023/01/20 11:54:24;;;;;;;26.48;10.10;;;;;;;-0.15;100.00;101193.75;5014440;28;20121;-90
2023/01/20 11:56:58;;;;;;;23.63;10.00;;;;;;;-0.06;100.00;101198.25;5033896;28;20060;-91
2023/01/20 11:59:30;;;;;;;20.87;9.50;;;;;;;-0.01;100.00;101196.03;5015894;28;20535;-90
2023/01/20 12:02:00;;;;;;;24.05;10.30;;;;;;;0.13;100.00;101198.28;5016378;28;20269;-91
2023/01/20 12:04:59;;;;;;;27.80;11.35;;;;;;;0.44;100.00;101198.16;5016350;28;20060;-90
2023/01/20 12:07:40;;;;;;;29.10;11.77;;;;;;;0.74;100.00;101190.97;5013198;28;20063;-90